Time;durP1;ratioP1;P1;durP2;ratioP2;P2;SDS_P1;SDS_P2;PMS_P1;PMS_P2;Temp;Humidity;BMP_temperature;BMP_pressure;BME280_temperature;BME280_humidity;BME280_pressure;Samples;Min_cycle;Max_cycle;Signal;HPM_P1;HPM_P2
2023/10/28 00:00:34;;;;;;;11.55;9.57;;;;;21.60;98477.00;;;;2053414;28;20207;-56
2023/10/28 00:01:35;;;;;;;14.00;10.23;;;;;21.60;98486.00;;;;2069767;28;20222;-56
2023/10/28 00:02:36;;;;;;;13.68;10.00;;;;;21.50;98483.00;;;;2069354;28;20267;-57
2023/10/28 00:03:36;;;;;;;13.50;11.00;;;;;21.50;98480.00;;;;2063440;28;20230;-57
2023/10/28 00:04:38;;;;;;;14.93;10.27;;;;;21.60;98477.00;;;;2062017;28;20234;-54
2023/10/28 00:05:39;;;;;;;13.52;9.85;;;;;21.60;98483.00;;;;2051721;28;20226;-56
2023/10/28 00:06:40;;;;;;;14.47;9.90;;;;;21.60;98478.00;;;;2063027;28;20786;-54
2023/10/28 00:07:41;;;;;;;14.20;9.93;;;;;21.60;98478.00;;;;2061652;28;20262;-54
2023/10/28 00:08:42;;;;;;;13.30;9.20;;;;;21.60;98474.00;;;;2062017;28;20237;-55
2023/10/28 00:09:43;;;;;;;13.38;10.13;;;;;21.60;98476.00;;;;2061414;28;20822;-55
2023/10/28 00:10:44;;;;;;;11.10;8.17;;;;;21.60;98475.00;;;;2060074;28;20225;-55
2023/10/28 00:11:46;;;;;;;10.30;8.80;;;;;21.50;98476.00;;;;2070647;28;20238;-56
2023/10/28 00:12:49;;;;;;;10.98;8.75;;;;;21.50;98480.00;;;;2065769;28;20230;-56
2023/10/28 00:13:50;;;;;;;12.80;9.48;;;;;21.50;98477.00;;;;2062087;28;20850;-54
2023/10/28 00:14:50;;;;;;;10.57;7.97;;;;;21.50;98477.00;;;;2063941;28;20301;-54
2023/10/28 00:15:51;;;;;;;10.23;8.30;;;;;21.50;98482.00;;;;2051069;28;20481;-56
2023/10/28 00:16:51;;;;;;;12.53;8.77;;;;;21.50;98484.00;;;;2061144;28;20695;-56
2023/10/28 00:17:52;;;;;;;11.83;8.77;;;;;21.50;98475.00;;;;2061876;28;20741;-56
2023/10/28 00:18:52;;;;;;;12.73;7.80;;;;;21.50;98480.00;;;;2061524;28;20239;-56
2023/10/28 00:19:53;;;;;;;12.50;8.63;;;;;21.50;98480.00;;;;2060101;28;20247;-56
2023/10/28 00:20:55;;;;;;;11.13;8.13;;;;;21.50;98480.00;;;;2052382;28;20262;-56
2023/10/28 00:21:55;;;;;;;10.25;8.43;;;;;21.50;98473.00;;;;2062302;28;20219;-56
2023/10/28 00:22:56;;;;;;;10.47;8.00;;;;;21.50;98484.00;;;;2062860;28;20211;-57
2023/10/28 00:23:57;;;;;;;11.18;7.20;;;;;21.50;98483.00;;;;2072613;28;20240;-56
2023/10/28 00:25:00;;;;;;;11.33;7.80;;;;;21.50;98483.00;;;;2067576;28;20222;-56
2023/10/28 00:26:04;;;;;;;8.80;7.05;;;;;21.50;98481.00;;;;2051254;28;20230;-55
2023/10/28 00:27:04;;;;;;;9.85;7.55;;;;;21.50;98480.00;;;;2072084;28;20230;-56
2023/10/28 00:28:05;;;;;;;10.23;7.47;;;;;21.50;98483.00;;;;2070150;28;20260;-56
2023/10/28 00:29:05;;;;;;;10.47;6.77;;;;;21.50;98483.00;;;;2062019;28;20227;-56
2023/10/28 00:30:07;;;;;;;9.23;6.43;;;;;21.50;98479.00;;;;2062571;28;20234;-56
2023/10/28 00:31:08;;;;;;;8.40;5.88;;;;;21.50;98484.00;;;;2056038;28;20317;-56
2023/10/28 00:32:09;;;;;;;10.97;6.20;;;;;21.50;98486.00;;;;2069598;28;20770;-54
2023/10/28 00:33:09;;;;;;;8.67;6.17;;;;;21.50;98485.00;;;;2063427;28;20223;-56
2023/10/28 00:34:09;;;;;;;8.50;6.37;;;;;21.50;98487.00;;;;2062914;28;20219;-55
2023/10/28 00:35:12;;;;;;;9.60;6.33;;;;;21.50;98481.00;;;;2069591;28;21035;-56
2023/10/28 00:36:13;;;;;;;8.95;6.45;;;;;21.50;98484.00;;;;2064460;28;20217;-54
2023/10/28 00:37:13;;;;;;;8.53;6.17;;;;;21.50;98485.00;;;;2063213;28;20226;-56
2023/10/28 00:38:13;;;;;;;10.50;6.13;;;;;21.50;98476.00;;;;2063977;28;20223;-56
2023/10/28 00:39:14;;;;;;;9.67;5.90;;;;;21.50;98483.00;;;;2063607;28;20269;-56
2023/10/28 00:40:15;;;;;;;7.30;5.60;;;;;21.50;98484.00;;;;2062805;28;20222;-56
2023/10/28 00:41:17;;;;;;;8.38;5.63;;;;;21.50;98486.00;;;;2059129;28;20241;-56
2023/10/28 00:42:17;;;;;;;7.60;5.97;;;;;21.40;98485.00;;;;2062814;28;20734;-54
2023/10/28 00:43:24;;;;;;;8.40;5.83;;;;;21.50;98482.00;;;;2065516;28;20210;-56
2023/10/28 00:44:24;;;;;;;8.80;6.03;;;;;21.50;98472.00;;;;2062881;28;20230;-56
2023/10/28 00:45:24;;;;;;;10.70;6.07;;;;;21.50;98477.00;;;;2062258;28;20202;-56
2023/10/28 00:46:25;;;;;;;7.93;5.60;;;;;21.40;98480.00;;;;2053405;28;20242;-56
2023/10/28 00:47:25;;;;;;;6.77;5.03;;;;;21.40;98480.00;;;;2062084;28;20217;-54
2023/10/28 00:48:26;;;;;;;7.63;5.13;;;;;21.40;98480.00;;;;2069216;28;20268;-56
2023/10/28 00:49:29;;;;;;;7.20;5.90;;;;;21.40;98473.00;;;;2069451;28;20213;-56
2023/10/28 00:50:30;;;;;;;7.72;5.32;;;;;21.40;98477.00;;;;2062862;28;20464;-54
2023/10/28 00:51:30;;;;;;;6.20;5.00;;;;;21.40;98484.00;;;;2062069;28;20592;-54
2023/10/28 00:52:31;;;;;;;7.10;5.03;;;;;21.40;98482.00;;;;2070532;28;20464;-56
2023/10/28 00:53:31;;;;;;;6.70;4.93;;;;;21.40;98458.00;;;;2074763;28;20233;-56
2023/10/28 00:54:33;;;;;;;6.97;5.30;;;;;21.40;98481.00;;;;2061555;28;20245;-56
2023/10/28 00:55:33;;;;;;;8.03;4.93;;;;;21.40;98486.00;;;;2050908;28;20281;-55
2023/10/28 00:56:34;;;;;;;7.43;4.97;;;;;21.40;98483.00;;;;2061863;28;20250;-55
2023/10/28 00:57:35;;;;;;;8.38;5.22;;;;;21.40;98476.00;;;;2058962;28;20215;-56
2023/10/28 00:58:35;;;;;;;6.13;4.57;;;;;21.40;98484.00;;;;2062001;28;20218;-56
2023/10/28 00:59:35;;;;;;;7.87;4.93;;;;;21.40;98479.00;;;;2062314;28;20206;-56
2023/10/28 01:00:36;;;;;;;8.57;4.87;;;;;21.40;98486.00;;;;2060019;28;20557;-56
2023/10/28 01:01:36;;;;;;;5.23;4.60;;;;;21.40;98483.00;;;;2066895;28;20265;-56
2023/10/28 01:02:39;;;;;;;7.57;5.30;;;;;21.40;98486.00;;;;2056150;28;20208;-55
2023/10/28 01:03:40;;;;;;;6.63;5.15;;;;;21.40;98480.00;;;;2060272;28;20781;-56
2023/10/28 01:04:40;;;;;;;5.50;4.15;;;;;21.40;98478.00;;;;2057742;28;22919;-54
2023/10/28 01:05:40;;;;;;;6.23;4.17;;;;;21.40;98483.00;;;;2049446;28;20797;-54
2023/10/28 01:06:41;;;;;;;6.03;4.13;;;;;21.40;98478.00;;;;2055804;28;20227;-56
2023/10/28 01:07:43;;;;;;;6.50;4.67;;;;;21.40;98481.00;;;;2071334;28;20225;-56
2023/10/28 01:08:44;;;;;;;6.25;4.28;;;;;21.40;98485.00;;;;2065053;28;20272;-56
2023/10/28 01:09:47;;;;;;;6.33;4.20;;;;;21.40;98480.00;;;;2069183;28;20667;-56
2023/10/28 01:10:48;;;;;;;7.03;4.40;;;;;21.40;98481.00;;;;2052682;28;20262;-56
2023/10/28 01:11:48;;;;;;;7.07;3.70;;;;;21.40;98479.00;;;;2059971;28;20247;-57
2023/10/28 01:12:49;;;;;;;6.17;4.60;;;;;21.40;98483.00;;;;2061746;28;20454;-55
2023/10/28 01:13:49;;;;;;;5.37;3.57;;;;;21.40;98484.00;;;;2061895;28;20222;-56
2023/10/28 01:14:50;;;;;;;5.60;3.77;;;;;21.40;98477.00;;;;2057044;28;20216;-55
2023/10/28 01:15:50;;;;;;;8.53;4.47;;;;;21.40;98479.00;;;;2050669;28;20261;-55
2023/10/28 01:16:50;;;;;;;5.87;3.83;;;;;21.40;98477.00;;;;2068224;28;20225;-54
2023/10/28 01:17:51;;;;;;;4.80;3.43;;;;;21.40;98478.00;;;;2062870;28;20366;-54
2023/10/28 01:18:54;;;;;;;5.00;3.83;;;;;21.40;98483.00;;;;2059801;28;20222;-55
2023/10/28 01:19:54;;;;;;;6.78;3.97;;;;;21.40;98473.00;;;;2066196;28;20230;-55
2023/10/28 01:20:54;;;;;;;7.17;3.70;;;;;21.40;98480.00;;;;2051331;28;20230;-56
2023/10/28 01:21:55;;;;;;;6.33;3.90;;;;;21.40;98481.00;;;;2065643;28;20219;-56
2023/10/28 01:22:55;;;;;;;5.80;4.50;;;;;21.40;98487.00;;;;2062118;28;20211;-54
2023/10/28 01:23:56;;;;;;;4.23;3.07;;;;;21.40;98479.00;;;;2067166;28;20280;-54
2023/10/28 01:24:56;;;;;;;5.97;3.70;;;;;21.40;98479.00;;;;2058318;28;20247;-56
2023/10/28 01:25:59;;;;;;;5.87;3.63;;;;;21.40;98473.00;;;;2046679;28;20563;-56
2023/10/28 01:26:59;;;;;;;5.88;3.67;;;;;21.40;98477.00;;;;2059003;28;20286;-54
2023/10/28 01:28:00;;;;;;;4.97;3.33;;;;;21.40;98473.00;;;;2062531;28;20206;-56
2023/10/28 01:29:03;;;;;;;4.40;3.23;;;;;21.40;98473.00;;;;2069111;28;20725;-54
2023/10/28 01:30:04;;;;;;;4.78;3.10;;;;;21.40;98472.00;;;;2069261;28;20820;-56
2023/10/28 01:31:05;;;;;;;5.03;2.83;;;;;21.40;98486.00;;;;2052660;28;20227;-56
2023/10/28 01:32:06;;;;;;;5.45;3.03;;;;;21.40;98478.00;;;;2061535;28;20275;-54
2023/10/28 01:33:06;;;;;;;4.90;3.57;;;;;21.40;98475.00;;;;2066195;28;20224;-56
2023/10/28 01:34:07;;;;;;;4.43;3.30;;;;;21.40;98479.00;;;;2065079;28;20274;-56
2023/10/28 01:35:09;;;;;;;4.17;3.20;;;;;21.10;98475.00;;;;2059347;28;20203;-56
2023/10/28 01:36:09;;;;;;;5.82;2.80;;;;;21.40;98477.00;;;;2052849;28;20253;-55
2023/10/28 01:37:10;;;;;;;5.80;3.70;;;;;21.40;98481.00;;;;2062085;28;20273;-55
2023/10/28 01:38:11;;;;;;;4.63;3.30;;;;;21.30;98477.00;;;;2067723;28;20226;-54
2023/10/28 01:39:15;;;;;;;4.07;3.25;;;;;21.30;98483.00;;;;2064106;28;20301;-55
2023/10/28 01:40:17;;;;;;;6.63;3.35;;;;;21.30;98485.00;;;;2062405;28;20229;-56
2023/10/28 01:41:18;;;;;;;5.20;3.50;;;;;21.30;98480.00;;;;2052552;28;20223;-56
2023/10/28 01:42:20;;;;;;;5.07;3.17;;;;;21.30;98488.00;;;;2061529;28;20257;-54
2023/10/28 01:43:21;;;;;;;4.45;3.20;;;;;21.40;98487.00;;;;2054100;28;20219;-53
2023/10/28 01:44:21;;;;;;;5.93;3.13;;;;;21.30;98491.00;;;;2056685;28;20703;-56
2023/10/28 01:45:21;;;;;;;4.87;2.90;;;;;21.40;98479.00;;;;2072062;28;20629;-56
2023/10/28 01:46:22;;;;;;;4.27;2.60;;;;;21.30;98485.00;;;;2059690;28;20249;-56
2023/10/28 01:47:22;;;;;;;4.40;2.93;;;;;21.30;98490.00;;;;2068542;28;20225;-54
2023/10/28 01:48:23;;;;;;;6.20;2.83;;;;;21.30;98487.00;;;;2069855;28;20218;-55
2023/10/28 01:49:23;;;;;;;4.70;2.77;;;;;21.30;98480.00;;;;2062244;28;20219;-55
2023/10/28 01:50:23;;;;;;;5.37;3.00;;;;;21.30;98494.00;;;;2076366;28;20244;-56
2023/10/28 01:51:24;;;;;;;5.20;2.97;;;;;21.30;98485.00;;;;2058771;28;20321;-57
2023/10/28 01:52:24;;;;;;;4.77;2.90;;;;;21.30;98492.00;;;;2059527;28;20215;-57
2023/10/28 01:53:25;;;;;;;3.67;2.50;;;;;21.30;98489.00;;;;2060694;28;20218;-56
2023/10/28 01:54:25;;;;;;;5.13;3.10;;;;;21.30;98488.00;;;;2060158;28;20257;-57
2023/10/28 01:55:25;;;;;;;3.90;2.50;;;;;21.30;98490.00;;;;2052144;28;20211;-56
2023/10/28 01:56:28;;;;;;;4.40;2.70;;;;;21.30;98499.00;;;;2050630;28;20289;-57
2023/10/28 01:57:28;;;;;;;4.05;2.78;;;;;21.30;98490.00;;;;2068461;28;20572;-55
2023/10/28 01:58:32;;;;;;;7.43;2.63;;;;;21.30;98495.00;;;;2068281;28;20218;-57
2023/10/28 01:59:36;;;;;;;7.13;2.63;;;;;21.30;98495.00;;;;2067101;28;20225;-56
2023/10/28 02:00:37;;;;;;;3.90;2.67;;;;;21.30;98498.00;;;;2056743;28;20217;-56
2023/10/28 02:01:37;;;;;;;5.47;2.80;;;;;21.30;98498.00;;;;2063322;28;20222;-56
2023/10/28 02:02:38;;;;;;;3.60;2.80;;;;;21.30;98501.00;;;;2066808;28;20673;-57
2023/10/28 02:03:38;;;;;;;3.87;2.43;;;;;21.30;98498.00;;;;2059573;28;20559;-56
2023/10/28 02:04:39;;;;;;;4.37;2.30;;;;;21.30;98508.00;;;;2061031;28;20967;-55
2023/10/28 02:05:39;;;;;;;4.67;2.57;;;;;21.30;98506.00;;;;2050598;28;20767;-56
2023/10/28 02:06:40;;;;;;;3.53;2.50;;;;;21.30;98492.00;;;;2059717;28;21191;-55
2023/10/28 02:07:41;;;;;;;4.53;2.50;;;;;21.30;98503.00;;;;2065979;28;20306;-57
2023/10/28 02:08:42;;;;;;;4.70;2.23;;;;;21.30;98498.00;;;;2062672;28;20257;-57
2023/10/28 02:09:42;;;;;;;3.28;2.20;;;;;21.30;98505.00;;;;2061055;28;20234;-56
2023/10/28 02:10:42;;;;;;;4.17;2.90;;;;;21.30;98497.00;;;;2051290;28;20253;-57
2023/10/28 02:11:43;;;;;;;5.50;2.20;;;;;21.30;98501.00;;;;2073460;28;20227;-57
2023/10/28 02:12:43;;;;;;;4.20;2.40;;;;;21.30;98506.00;;;;2068290;28;20226;-57
2023/10/28 02:13:45;;;;;;;4.60;2.50;;;;;21.30;98501.00;;;;2061943;28;20229;-57
2023/10/28 02:14:46;;;;;;;4.38;2.33;;;;;21.30;98503.00;;;;2060773;28;20273;-57
2023/10/28 02:15:49;;;;;;;1.90;1.70;;;;;21.30;98501.00;;;;2050629;28;20291;-57
2023/10/28 02:16:50;;;;;;;3.95;2.30;;;;;21.30;98498.00;;;;2072444;28;20556;-56
2023/10/28 02:17:51;;;;;;;4.20;2.60;;;;;21.30;98494.00;;;;2068765;28;20706;-55
2023/10/28 02:18:51;;;;;;;4.33;2.60;;;;;21.30;98501.00;;;;2067815;28;20448;-56
2023/10/28 02:19:52;;;;;;;3.50;2.23;;;;;21.30;98503.00;;;;2060926;28;20465;-56
2023/10/28 02:20:54;;;;;;;3.90;2.13;;;;;21.30;98505.00;;;;2050797;28;20226;-53
2023/10/28 02:21:55;;;;;;;2.85;2.15;;;;;21.30;98503.00;;;;2057168;28;20218;-55
2023/10/28 02:22:55;;;;;;;2.50;2.10;;;;;21.30;98504.00;;;;2058176;28;20753;-56
2023/10/28 02:23:56;;;;;;;3.40;1.80;;;;;21.30;98509.00;;;;2066240;28;20454;-56
2023/10/28 02:24:56;;;;;;;2.90;1.90;;;;;21.30;98496.00;;;;2061265;28;20214;-55
2023/10/28 02:25:56;;;;;;;3.93;2.13;;;;;21.30;98506.00;;;;2045905;28;20221;-56
2023/10/28 02:26:57;;;;;;;3.53;2.00;;;;;21.30;98506.00;;;;2062276;28;20218;-54
2023/10/28 02:27:57;;;;;;;3.50;2.03;;;;;21.30;98510.00;;;;2061949;28;20746;-55
2023/10/28 02:28:57;;;;;;;3.17;1.90;;;;;21.30;98511.00;;;;2063553;28;20227;-55
2023/10/28 02:29:57;;;;;;;3.37;2.00;;;;;21.30;98512.00;;;;2062899;28;20207;-57
2023/10/28 02:30:59;;;;;;;4.57;1.87;;;;;21.30;98511.00;;;;2057186;28;20695;-56
2023/10/28 02:31:59;;;;;;;2.50;1.80;;;;;21.30;98521.00;;;;2057701;28;20596;-54
2023/10/28 02:32:59;;;;;;;3.23;1.70;;;;;21.20;98519.00;;;;2056765;28;20211;-54
2023/10/28 02:34:00;;;;;;;3.70;1.60;;;;;21.30;98515.00;;;;2060016;28;20206;-54
2023/10/28 02:35:01;;;;;;;3.35;2.00;;;;;21.20;98517.00;;;;2062631;28;20222;-56
2023/10/28 02:36:05;;;;;;;3.53;1.80;;;;;21.20;98516.00;;;;2053853;28;20685;-55
2023/10/28 02:37:06;;;;;;;3.25;1.90;;;;;21.30;98513.00;;;;2061807;28;20200;-54
2023/10/28 02:38:06;;;;;;;2.67;1.60;;;;;21.20;98512.00;;;;2063099;28;20206;-56
2023/10/28 02:39:06;;;;;;;2.10;1.33;;;;;21.20;98516.00;;;;2063827;28;20207;-56
2023/10/28 02:40:08;;;;;;;3.00;1.43;;;;;21.20;98516.00;;;;2060902;28;20913;-56
2023/10/28 02:41:09;;;;;;;3.13;1.60;;;;;21.20;98514.00;;;;2048552;28;20219;-55
2023/10/28 02:42:09;;;;;;;4.90;2.00;;;;;21.20;98506.00;;;;2059137;28;20953;-56
2023/10/28 02:43:09;;;;;;;2.10;1.23;;;;;21.20;98508.00;;;;2063310;28;20749;-56
2023/10/28 02:44:10;;;;;;;3.93;1.70;;;;;21.20;98510.00;;;;2059849;28;21161;-55
2023/10/28 02:45:11;;;;;;;3.00;1.60;;;;;21.20;98519.00;;;;2059000;28;20601;-56
2023/10/28 02:46:19;;;;;;;3.10;1.80;;;;;21.20;98511.00;;;;2058752;28;20460;-56
2023/10/28 02:47:20;;;;;;;2.88;1.85;;;;;21.20;98512.00;;;;2062598;28;20274;-54
2023/10/28 02:48:21;;;;;;;2.83;1.45;;;;;21.20;98508.00;;;;2056400;28;20222;-55
2023/10/28 02:49:21;;;;;;;5.70;1.83;;;;;21.20;98509.00;;;;2061666;28;20211;-55
2023/10/28 02:50:21;;;;;;;2.47;1.73;;;;;21.20;98511.00;;;;2063957;28;20211;-57
2023/10/28 02:51:22;;;;;;;2.53;1.50;;;;;21.20;98519.00;;;;2054172;28;20223;-56
2023/10/28 02:52:22;;;;;;;2.07;1.30;;;;;21.20;98509.00;;;;2060943;28;20222;-54
2023/10/28 02:53:22;;;;;;;2.70;1.70;;;;;21.20;98506.00;;;;2063010;28;20206;-54
2023/10/28 02:54:23;;;;;;;2.70;1.63;;;;;21.20;98506.00;;;;2069378;28;20222;-55
2023/10/28 02:55:23;;;;;;;2.20;1.63;;;;;21.20;98507.00;;;;2063410;28;20257;-56
2023/10/28 02:56:24;;;;;;;2.47;1.40;;;;;21.20;98504.00;;;;2051531;28;20230;-56
2023/10/28 02:57:24;;;;;;;2.40;1.43;;;;;21.20;98501.00;;;;2063611;28;20226;-55
2023/10/28 02:58:24;;;;;;;3.43;1.30;;;;;21.20;98499.00;;;;2063576;28;20222;-54
2023/10/28 02:59:25;;;;;;;4.10;1.40;;;;;21.20;98506.00;;;;2064035;28;20211;-54
2023/10/28 03:00:25;;;;;;;2.73;1.57;;;;;21.20;98503.00;;;;2063644;28;20218;-56
2023/10/28 03:01:25;;;;;;;4.60;2.13;;;;;21.20;98507.00;;;;2053047;28;20606;-56
2023/10/28 03:02:26;;;;;;;2.87;1.90;;;;;21.20;98507.00;;;;2061865;28;20234;-56
2023/10/28 03:03:26;;;;;;;5.10;1.63;;;;;21.20;98506.00;;;;2067250;28;20222;-55
2023/10/28 03:04:26;;;;;;;2.30;1.60;;;;;21.20;98557.00;;;;2064232;28;20678;-56
2023/10/28 03:05:27;;;;;;;2.70;1.30;;;;;21.20;98504.00;;;;2057592;28;20697;-54
2023/10/28 03:06:27;;;;;;;2.80;1.30;;;;;21.20;98508.00;;;;2059487;28;20739;-55
2023/10/28 03:07:28;;;;;;;2.03;1.37;;;;;21.20;98506.00;;;;2062591;28;20667;-55
2023/10/28 03:08:28;;;;;;;3.50;1.60;;;;;21.20;98501.00;;;;2076564;28;20221;-54
2023/10/28 03:09:30;;;;;;;2.80;1.60;;;;;21.20;98506.00;;;;2070917;28;20221;-56
2023/10/28 03:10:31;;;;;;;2.17;1.20;;;;;21.20;98507.00;;;;2056484;28;20219;-56
2023/10/28 03:11:31;;;;;;;2.40;1.40;;;;;21.20;98393.00;;;;2063011;28;20292;-53
2023/10/28 03:12:31;;;;;;;2.00;1.20;;;;;21.20;98423.00;;;;2062949;28;20938;-54
2023/10/28 03:13:32;;;;;;;2.20;1.23;;;;;21.20;98499.00;;;;2063374;28;20754;-56
2023/10/28 03:14:32;;;;;;;2.20;1.20;;;;;21.20;98505.00;;;;2063271;28;20237;-56
2023/10/28 03:15:32;;;;;;;2.10;1.30;;;;;21.20;98507.00;;;;2057222;28;20334;-56
2023/10/28 03:16:33;;;;;;;3.07;1.53;;;;;21.20;98510.00;;;;2061917;28;20280;-54
2023/10/28 03:17:33;;;;;;;3.63;1.50;;;;;21.20;98509.00;;;;2069776;28;20219;-56
2023/10/28 03:18:34;;;;;;;4.10;1.60;;;;;21.20;98513.00;;;;2055111;28;20831;-54
2023/10/28 03:19:34;;;;;;;2.20;1.30;;;;;21.20;98502.00;;;;2063357;28;20221;-54
2023/10/28 03:20:34;;;;;;;2.07;1.30;;;;;21.20;98510.00;;;;2059918;28;20215;-55
2023/10/28 03:21:35;;;;;;;3.10;1.77;;;;;21.20;98512.00;;;;2069605;28;20601;-56
2023/10/28 03:22:36;;;;;;;2.63;1.87;;;;;21.20;98510.00;;;;2074192;28;20205;-56
2023/10/28 03:23:36;;;;;;;1.70;1.00;;;;;21.20;98506.00;;;;2070294;28;20202;-54
2023/10/28 03:24:37;;;;;;;2.60;1.63;;;;;21.20;98506.00;;;;2065298;28;20465;-56
2023/10/28 03:25:37;;;;;;;3.00;1.40;;;;;21.20;98510.00;;;;2053472;28;20266;-56
2023/10/28 03:26:38;;;;;;;2.03;1.30;;;;;21.20;98539.00;;;;2070325;28;20850;-54
2023/10/28 03:27:39;;;;;;;2.53;1.50;;;;;21.20;98509.00;;;;2059723;28;20703;-56
2023/10/28 03:28:39;;;;;;;2.40;1.33;;;;;21.20;98507.00;;;;2062204;28;20227;-54
2023/10/28 03:29:40;;;;;;;3.10;1.50;;;;;21.20;98503.00;;;;2065130;28;20472;-56
2023/10/28 03:30:41;;;;;;;2.60;1.27;;;;;21.20;98499.00;;;;2053016;28;20219;-55
2023/10/28 03:31:41;;;;;;;3.33;1.33;;;;;21.20;98503.00;;;;2060524;28;20524;-55
2023/10/28 03:32:41;;;;;;;1.77;1.37;;;;;21.20;98511.00;;;;2070142;28;20345;-56
2023/10/28 03:33:42;;;;;;;2.93;1.27;;;;;21.20;98504.00;;;;2070492;28;22448;-55
2023/10/28 03:34:43;;;;;;;1.98;1.08;;;;;21.20;98505.00;;;;2062425;28;20227;-55
2023/10/28 03:35:43;;;;;;;2.17;1.20;;;;;21.20;98502.00;;;;2052009;28;20222;-56
2023/10/28 03:36:43;;;;;;;2.93;1.20;;;;;21.20;98505.00;;;;2073697;28;20220;-55
2023/10/28 03:37:44;;;;;;;2.30;1.23;;;;;21.20;98509.00;;;;2070628;28;20249;-56
2023/10/28 03:38:44;;;;;;;6.17;1.13;;;;;21.20;98513.00;;;;2063331;28;20218;-55
2023/10/28 03:39:45;;;;;;;2.37;1.43;;;;;21.20;98509.00;;;;2069904;28;20214;-54
2023/10/28 03:40:45;;;;;;;1.80;1.20;;;;;21.20;98509.00;;;;2053232;28;20246;-54
2023/10/28 03:41:45;;;;;;;2.60;1.00;;;;;21.10;98509.00;;;;2069573;28;20226;-56
2023/10/28 03:42:45;;;;;;;2.50;1.03;;;;;21.20;98508.00;;;;2070040;28;20215;-56
2023/10/28 03:43:46;;;;;;;2.10;1.30;;;;;21.20;98504.00;;;;2061753;28;20250;-56
2023/10/28 03:44:46;;;;;;;2.47;1.20;;;;;21.20;98507.00;;;;2061191;28;20218;-56
2023/10/28 03:45:48;;;;;;;3.50;1.27;;;;;21.20;98512.00;;;;2045496;28;20242;-54
2023/10/28 03:46:49;;;;;;;1.98;1.35;;;;;21.10;98516.00;;;;2068916;28;20294;-54
2023/10/28 03:47:49;;;;;;;1.60;1.10;;;;;21.10;98507.00;;;;2062816;28;20222;-56
2023/10/28 03:48:50;;;;;;;3.60;1.50;;;;;21.10;98509.00;;;;2062378;28;20218;-56
2023/10/28 03:49:50;;;;;;;2.63;1.20;;;;;21.20;98503.00;;;;2049250;28;20220;-55
2023/10/28 03:51:04;;;;;;;2.43;1.10;;;;;21.20;98506.00;;;;2052948;28;20223;-56
2023/10/28 03:52:05;;;;;;;1.92;1.10;;;;;21.20;98508.00;;;;2061655;28;20302;-56
2023/10/28 03:53:05;;;;;;;3.00;0.93;;;;;21.10;98501.00;;;;2062051;28;20272;-56
2023/10/28 03:54:05;;;;;;;1.57;1.00;;;;;21.10;98503.00;;;;2062037;28;20707;-54
2023/10/28 03:55:06;;;;;;;2.33;1.17;;;;;21.10;98503.00;;;;2060441;28;20584;-54
2023/10/28 03:56:08;;;;;;;1.67;1.17;;;;;21.10;98507.00;;;;2052624;28;20211;-55
2023/10/28 03:57:09;;;;;;;1.90;1.00;;;;;21.10;98508.00;;;;2058567;28;20487;-56
2023/10/28 03:58:10;;;;;;;2.10;1.20;;;;;21.10;98503.00;;;;2058569;28;20223;-56
2023/10/28 03:59:10;;;;;;;2.00;1.20;;;;;21.10;98512.00;;;;2062681;28;20211;-54
2023/10/28 04:00:11;;;;;;;1.83;0.90;;;;;21.10;98506.00;;;;2062066;28;20454;-56
2023/10/28 04:01:11;;;;;;;2.00;1.27;;;;;21.10;98515.00;;;;2052161;28;20567;-56
2023/10/28 04:02:12;;;;;;;3.27;1.00;;;;;21.10;98519.00;;;;2062646;28;20221;-56
2023/10/28 04:03:12;;;;;;;1.73;1.23;;;;;21.10;98512.00;;;;2056514;28;21877;-56
2023/10/28 04:04:13;;;;;;;2.10;1.27;;;;;21.10;98508.00;;;;2058340;28;20245;-56
2023/10/28 04:05:13;;;;;;;2.73;1.20;;;;;21.10;98510.00;;;;2061107;28;20219;-55
2023/10/28 04:06:13;;;;;;;1.83;1.00;;;;;21.10;98515.00;;;;2052499;28;20843;-56
2023/10/28 04:07:14;;;;;;;3.67;1.37;;;;;21.10;98510.00;;;;2058117;28;20240;-55
2023/10/28 04:08:14;;;;;;;2.20;1.30;;;;;20.70;98509.00;;;;2063008;28;20223;-55
2023/10/28 04:09:14;;;;;;;1.97;1.07;;;;;21.10;98514.00;;;;2061598;28;20237;-54
2023/10/28 04:10:15;;;;;;;5.07;1.13;;;;;21.10;98507.00;;;;2062839;28;20305;-55
2023/10/28 04:11:15;;;;;;;2.13;0.80;;;;;21.10;98510.00;;;;2047182;28;20266;-56
2023/10/28 04:12:15;;;;;;;2.00;1.23;;;;;21.10;98507.00;;;;2063218;28;20217;-56
2023/10/28 04:13:16;;;;;;;1.90;0.90;;;;;21.10;98509.00;;;;2066036;28;20241;-56
2023/10/28 04:14:16;;;;;;;2.73;1.10;;;;;21.10;98512.00;;;;2065511;28;20229;-56
2023/10/28 04:15:18;;;;;;;1.67;1.10;;;;;21.10;98510.00;;;;2069686;28;20220;-53
2023/10/28 04:16:18;;;;;;;2.25;0.95;;;;;20.70;98511.00;;;;2048069;28;20702;-56
2023/10/28 04:17:19;;;;;;;1.20;0.90;;;;;21.10;98512.00;;;;2061349;28;20226;-55
2023/10/28 04:18:19;;;;;;;1.93;0.80;;;;;21.10;98561.00;;;;2062853;28;20254;-56
2023/10/28 04:19:19;;;;;;;1.77;0.93;;;;;21.10;98514.00;;;;2061689;28;20774;-55
2023/10/28 04:20:20;;;;;;;2.87;1.00;;;;;21.10;98520.00;;;;2062709;28;20635;-56
2023/10/28 04:21:20;;;;;;;2.43;1.27;;;;;21.10;98519.00;;;;2052516;28;21010;-55
2023/10/28 04:22:21;;;;;;;1.90;1.20;;;;;21.10;98512.00;;;;2065312;28;20698;-56
2023/10/28 04:23:21;;;;;;;2.37;1.20;;;;;21.10;98512.00;;;;2061973;28;20904;-54
2023/10/28 04:24:23;;;;;;;2.57;1.30;;;;;21.10;98506.00;;;;2061387;28;20223;-55
2023/10/28 04:25:23;;;;;;;3.60;1.00;;;;;21.10;98509.00;;;;2061553;28;20218;-55
2023/10/28 04:26:24;;;;;;;2.80;1.23;;;;;21.10;98508.00;;;;2055750;28;20237;-54
2023/10/28 04:27:24;;;;;;;4.63;1.10;;;;;21.10;98506.00;;;;2064959;28;20309;-60
2023/10/28 04:28:25;;;;;;;2.67;1.13;;;;;21.10;98509.00;;;;2069658;28;20221;-58
2023/10/28 04:29:25;;;;;;;2.63;0.97;;;;;21.10;98510.00;;;;2068983;28;20214;-59
2023/10/28 04:30:25;;;;;;;1.63;1.30;;;;;21.10;98505.00;;;;2062823;28;20219;-58
2023/10/28 04:31:27;;;;;;;1.53;1.03;;;;;21.10;98512.00;;;;2062792;28;20213;-54
2023/10/28 04:32:28;;;;;;;1.65;1.00;;;;;21.10;98506.00;;;;2059511;28;20208;-54
2023/10/28 04:33:28;;;;;;;2.53;1.20;;;;;21.10;98503.00;;;;2061166;28;20247;-55
2023/10/28 04:34:28;;;;;;;1.40;1.20;;;;;21.10;98506.00;;;;2062461;28;20268;-55
2023/10/28 04:35:29;;;;;;;3.10;1.33;;;;;21.10;98509.00;;;;2052183;28;20222;-56
2023/10/28 04:36:29;;;;;;;1.83;0.80;;;;;21.10;98509.00;;;;2062250;28;20881;-56
2023/10/28 04:37:29;;;;;;;2.40;1.33;;;;;21.10;98505.00;;;;2062501;28;20245;-57
2023/10/28 04:38:30;;;;;;;1.43;0.90;;;;;21.10;98509.00;;;;2064522;28;20223;-57
2023/10/28 04:39:30;;;;;;;2.60;1.00;;;;;21.10;98516.00;;;;2061130;28;20219;-54
2023/10/28 04:40:30;;;;;;;2.17;1.07;;;;;21.10;98521.00;;;;2059175;28;20280;-56
2023/10/28 04:41:31;;;;;;;1.83;0.90;;;;;21.10;98510.00;;;;2068801;28;20214;-55
2023/10/28 04:42:31;;;;;;;1.90;0.90;;;;;21.10;98508.00;;;;2058684;28;20211;-56
2023/10/28 04:43:32;;;;;;;4.50;1.10;;;;;21.10;98513.00;;;;2061715;28;20229;-56
2023/10/28 04:44:32;;;;;;;1.70;1.00;;;;;20.70;98520.00;;;;2055948;28;20239;-55
2023/10/28 04:45:33;;;;;;;2.67;1.00;;;;;21.10;98518.00;;;;2047535;28;20231;-55
2023/10/28 04:46:33;;;;;;;3.53;1.20;;;;;21.10;98514.00;;;;2063601;28;20687;-56
2023/10/28 04:47:35;;;;;;;2.50;1.00;;;;;21.10;98511.00;;;;2062658;28;21095;-54
2023/10/28 04:48:35;;;;;;;3.00;1.50;;;;;21.10;98514.00;;;;2068912;28;20218;-54
2023/10/28 04:49:37;;;;;;;2.70;1.20;;;;;21.10;98511.00;;;;2056648;28;20239;-55
2023/10/28 04:50:37;;;;;;;2.00;1.30;;;;;21.10;98524.00;;;;2055400;28;20789;-55
2023/10/28 04:51:38;;;;;;;2.40;0.87;;;;;21.10;98525.00;;;;2062012;28;20219;-55
2023/10/28 04:52:40;;;;;;;2.70;1.27;;;;;21.00;98520.00;;;;2061774;28;20945;-56
2023/10/28 04:53:40;;;;;;;1.52;0.95;;;;;21.10;98513.00;;;;2063081;28;20237;-56
2023/10/28 04:54:40;;;;;;;3.50;1.07;;;;;21.00;98521.00;;;;2062417;28;20746;-56
2023/10/28 04:55:42;;;;;;;2.00;0.97;;;;;21.10;98520.00;;;;2050476;28;20219;-55
2023/10/28 04:56:44;;;;;;;1.65;1.17;;;;;21.10;98518.00;;;;2054694;28;20291;-53
2023/10/28 04:57:44;;;;;;;1.57;0.90;;;;;21.10;98516.00;;;;2064721;28;20361;-56
2023/10/28 04:58:44;;;;;;;2.50;1.17;;;;;21.10;98522.00;;;;2054722;28;20270;-55
2023/10/28 04:59:45;;;;;;;1.70;0.77;;;;;21.10;98514.00;;;;2062592;28;20226;-56
2023/10/28 05:00:45;;;;;;;1.40;0.90;;;;;21.10;98519.00;;;;2061238;28;20750;-54
2023/10/28 05:01:45;;;;;;;2.00;1.00;;;;;21.10;98513.00;;;;2069451;28;20607;-54
2023/10/28 05:02:46;;;;;;;1.70;0.87;;;;;21.10;98520.00;;;;2072182;28;20229;-55
2023/10/28 05:03:46;;;;;;;2.00;0.90;;;;;21.10;98522.00;;;;2062677;28;20223;-56